sensor_id;sensor_type;location;lat;lon;timestamp;P1;durP1;ratioP1;P2;durP2;ratioP2
51238;SDS011;38154;47.548;18.828;2022-11-15T00:02:09;25.70;;;10.48;;
51238;SDS011;38154;47.548;18.828;2022-11-15T00:04:35;20.83;;;11.10;;
51238;SDS011;38154;47.548;18.828;2022-11-15T00:07:01;19.00;;;8.63;;
51238;SDS011;38154;47.548;18.828;2022-11-15T00:09:27;17.02;;;9.23;;
51238;SDS011;38154;47.548;18.828;2022-11-15T00:11:53;18.92;;;8.15;;
51238;SDS011;38154;47.548;18.828;2022-11-15T00:14:19;22.27;;;10.10;;
51238;SDS011;38154;47.548;18.828;2022-11-15T00:16:44;18.27;;;8.73;;
51238;SDS011;38154;47.548;18.828;2022-11-15T00:19:10;22.48;;;10.13;;
51238;SDS011;38154;47.548;18.828;2022-11-15T00:21:36;21.02;;;10.10;;
51238;SDS011;38154;47.548;18.828;2022-11-15T00:24:02;16.70;;;9.50;;
51238;SDS011;38154;47.548;18.828;2022-11-15T00:26:28;17.35;;;8.98;;
51238;SDS011;38154;47.548;18.828;2022-11-15T00:28:54;14.77;;;9.20;;
51238;SDS011;38154;47.548;18.828;2022-11-15T00:31:20;11.70;;;6.97;;
51238;SDS011;38154;47.548;18.828;2022-11-15T00:33:46;12.75;;;7.15;;
51238;SDS011;38154;47.548;18.828;2022-11-15T00:36:11;13.90;;;8.27;;
51238;SDS011;38154;47.548;18.828;2022-11-15T00:38:38;16.67;;;8.40;;
51238;SDS011;38154;47.548;18.828;2022-11-15T00:43:31;15.30;;;6.85;;
51238;SDS011;38154;47.548;18.828;2022-11-15T00:45:58;16.00;;;6.93;;
51238;SDS011;38154;47.548;18.828;2022-11-15T00:48:23;11.45;;;7.87;;
51238;SDS011;38154;47.548;18.828;2022-11-15T00:50:49;11.80;;;7.30;;
51238;SDS011;38154;47.548;18.828;2022-11-15T00:53:16;11.82;;;7.47;;
51238;SDS011;38154;47.548;18.828;2022-11-15T00:55:42;15.63;;;7.53;;
51238;SDS011;38154;47.548;18.828;2022-11-15T00:58:08;15.73;;;7.40;;
51238;SDS011;38154;47.548;18.828;2022-11-15T01:00:34;14.27;;;8.57;;
51238;SDS011;38154;47.548;18.828;2022-11-15T01:03:00;13.23;;;7.07;;
51238;SDS011;38154;47.548;18.828;2022-11-15T01:05:27;8.52;;;5.80;;
51238;SDS011;38154;47.548;18.828;2022-11-15T01:07:54;14.43;;;6.90;;
51238;SDS011;38154;47.548;18.828;2022-11-15T01:10:21;13.65;;;7.47;;
51238;SDS011;38154;47.548;18.828;2022-11-15T01:12:48;15.70;;;8.23;;
51238;SDS011;38154;47.548;18.828;2022-11-15T01:15:14;11.60;;;7.20;;
51238;SDS011;38154;47.548;18.828;2022-11-15T01:17:40;15.60;;;7.45;;
51238;SDS011;38154;47.548;18.828;2022-11-15T01:20:06;15.80;;;9.60;;
51238;SDS011;38154;47.548;18.828;2022-11-15T01:22:33;16.10;;;8.77;;
51238;SDS011;38154;47.548;18.828;2022-11-15T01:24:58;14.57;;;7.60;;
51238;SDS011;38154;47.548;18.828;2022-11-15T01:27:24;16.12;;;9.07;;
51238;SDS011;38154;47.548;18.828;2022-11-15T01:29:50;15.43;;;7.62;;
51238;SDS011;38154;47.548;18.828;2022-11-15T01:32:16;17.42;;;8.77;;
51238;SDS011;38154;47.548;18.828;2022-11-15T01:34:42;17.25;;;9.15;;
51238;SDS011;38154;47.548;18.828;2022-11-15T01:37:09;16.90;;;8.48;;
51238;SDS011;38154;47.548;18.828;2022-11-15T01:39:35;14.05;;;7.75;;
51238;SDS011;38154;47.548;18.828;2022-11-15T01:42:01;19.95;;;7.72;;
51238;SDS011;38154;47.548;18.828;2022-11-15T01:46:59;19.90;;;8.02;;
51238;SDS011;38154;47.548;18.828;2022-11-15T01:49:29;12.73;;;6.70;;
51238;SDS011;38154;47.548;18.828;2022-11-15T01:51:57;16.62;;;7.90;;
51238;SDS011;38154;47.548;18.828;2022-11-15T01:54:26;14.85;;;7.60;;
51238;SDS011;38154;47.548;18.828;2022-11-15T01:56:54;14.70;;;9.37;;
51238;SDS011;38154;47.548;18.828;2022-11-15T01:59:27;16.45;;;7.78;;
51238;SDS011;38154;47.548;18.828;2022-11-15T02:01:53;14.00;;;8.73;;
51238;SDS011;38154;47.548;18.828;2022-11-15T02:04:29;21.00;;;9.27;;
51238;SDS011;38154;47.548;18.828;2022-11-15T02:06:57;16.10;;;8.02;;
51238;SDS011;38154;47.548;18.828;2022-11-15T02:09:25;18.23;;;9.25;;
51238;SDS011;38154;47.548;18.828;2022-11-15T02:11:51;13.82;;;8.02;;
51238;SDS011;38154;47.548;18.828;2022-11-15T02:14:20;20.35;;;9.38;;
51238;SDS011;38154;47.548;18.828;2022-11-15T02:32:44;16.27;;;9.18;;
51238;SDS011;38154;47.548;18.828;2022-11-15T02:35:19;12.13;;;7.40;;
51238;SDS011;38154;47.548;18.828;2022-11-15T02:38:00;16.95;;;8.50;;
51238;SDS011;38154;47.548;18.828;2022-11-15T02:40:39;17.80;;;8.23;;
51238;SDS011;38154;47.548;18.828;2022-11-15T02:43:12;17.67;;;8.93;;
51238;SDS011;38154;47.548;18.828;2022-11-15T02:46:03;16.52;;;7.55;;
51238;SDS011;38154;47.548;18.828;2022-11-15T02:48:36;15.15;;;6.60;;
51238;SDS011;38154;47.548;18.828;2022-11-15T02:51:02;14.68;;;7.62;;
51238;SDS011;38154;47.548;18.828;2022-11-15T02:53:28;14.15;;;8.40;;
51238;SDS011;38154;47.548;18.828;2022-11-15T02:55:54;18.80;;;7.35;;
51238;SDS011;38154;47.548;18.828;2022-11-15T02:59:07;22.85;;;7.90;;
51238;SDS011;38154;47.548;18.828;2022-11-15T03:01:31;11.77;;;6.45;;
51238;SDS011;38154;47.548;18.828;2022-11-15T03:04:23;13.25;;;7.93;;
51238;SDS011;38154;47.548;18.828;2022-11-15T03:06:55;16.62;;;7.75;;
51238;SDS011;38154;47.548;18.828;2022-11-15T03:09:34;13.50;;;7.95;;
51238;SDS011;38154;47.548;18.828;2022-11-15T03:12:11;17.10;;;8.10;;
51238;SDS011;38154;47.548;18.828;2022-11-15T03:14:51;14.35;;;7.25;;
51238;SDS011;38154;47.548;18.828;2022-11-15T03:17:26;11.20;;;6.47;;
51238;SDS011;38154;47.548;18.828;2022-11-15T03:20:03;13.43;;;6.93;;
51238;SDS011;38154;47.548;18.828;2022-11-15T03:22:33;10.35;;;4.35;;
51238;SDS011;38154;47.548;18.828;2022-11-15T03:25:04;11.38;;;5.57;;
51238;SDS011;38154;47.548;18.828;2022-11-15T03:27:37;11.45;;;5.28;;
51238;SDS011;38154;47.548;18.828;2022-11-15T03:30:07;8.00;;;3.75;;
51238;SDS011;38154;47.548;18.828;2022-11-15T03:32:38;6.78;;;4.90;;
51238;SDS011;38154;47.548;18.828;2022-11-15T03:35:27;10.93;;;5.45;;
51238;SDS011;38154;47.548;18.828;2022-11-15T03:40:30;6.07;;;3.58;;
51238;SDS011;38154;47.548;18.828;2022-11-15T03:43:15;6.65;;;3.97;;
51238;SDS011;38154;47.548;18.828;2022-11-15T03:46:05;8.15;;;3.60;;
51238;SDS011;38154;47.548;18.828;2022-11-15T03:48:40;9.52;;;3.58;;
51238;SDS011;38154;47.548;18.828;2022-11-15T03:51:11;4.65;;;2.97;;
51238;SDS011;38154;47.548;18.828;2022-11-15T03:53:37;5.32;;;3.67;;
51238;SDS011;38154;47.548;18.828;2022-11-15T03:56:03;5.53;;;3.47;;
51238;SDS011;38154;47.548;18.828;2022-11-15T03:58:29;11.43;;;4.32;;
51238;SDS011;38154;47.548;18.828;2022-11-15T04:00:55;7.65;;;3.75;;
51238;SDS011;38154;47.548;18.828;2022-11-15T04:03:20;11.88;;;5.43;;
51238;SDS011;38154;47.548;18.828;2022-11-15T04:05:46;13.48;;;6.07;;
51238;SDS011;38154;47.548;18.828;2022-11-15T04:08:12;12.32;;;6.70;;
51238;SDS011;38154;47.548;18.828;2022-11-15T04:10:38;20.37;;;9.13;;
51238;SDS011;38154;47.548;18.828;2022-11-15T04:13:04;16.12;;;8.73;;
51238;SDS011;38154;47.548;18.828;2022-11-15T04:15:30;15.13;;;8.55;;
51238;SDS011;38154;47.548;18.828;2022-11-15T04:17:56;20.17;;;10.00;;
51238;SDS011;38154;47.548;18.828;2022-11-15T04:20:24;14.52;;;8.82;;
51238;SDS011;38154;47.548;18.828;2022-11-15T04:23:14;15.02;;;8.07;;
51238;SDS011;38154;47.548;18.828;2022-11-15T04:28:41;20.00;;;9.02;;
51238;SDS011;38154;47.548;18.828;2022-11-15T04:31:25;14.65;;;7.80;;
51238;SDS011;38154;47.548;18.828;2022-11-15T04:33:52;17.62;;;9.13;;
51238;SDS011;38154;47.548;18.828;2022-11-15T04:36:19;19.00;;;8.88;;
51238;SDS011;38154;47.548;18.828;2022-11-15T04:39:04;10.35;;;7.18;;
51238;SDS011;38154;47.548;18.828;2022-11-15T04:41:30;9.98;;;7.00;;
51238;SDS011;38154;47.548;18.828;2022-11-15T04:43:55;16.52;;;7.97;;
51238;SDS011;38154;47.548;18.828;2022-11-15T04:46:22;13.70;;;7.15;;
51238;SDS011;38154;47.548;18.828;2022-11-15T04:48:49;17.15;;;8.38;;
51238;SDS011;38154;47.548;18.828;2022-11-15T04:51:15;12.55;;;7.35;;
51238;SDS011;38154;47.548;18.828;2022-11-15T04:53:41;16.37;;;8.40;;
51238;SDS011;38154;47.548;18.828;2022-11-15T04:56:07;19.45;;;8.95;;
51238;SDS011;38154;47.548;18.828;2022-11-15T04:58:33;13.07;;;7.70;;
51238;SDS011;38154;47.548;18.828;2022-11-15T05:01:06;24.00;;;9.77;;
51238;SDS011;38154;47.548;18.828;2022-11-15T05:03:33;12.10;;;7.03;;
51238;SDS011;38154;47.548;18.828;2022-11-15T05:06:19;16.87;;;8.10;;
51238;SDS011;38154;47.548;18.828;2022-11-15T05:08:45;22.62;;;9.18;;
51238;SDS011;38154;47.548;18.828;2022-11-15T05:11:11;22.02;;;10.18;;
51238;SDS011;38154;47.548;18.828;2022-11-15T05:13:37;10.60;;;6.85;;
51238;SDS011;38154;47.548;18.828;2022-11-15T05:16:02;18.85;;;9.27;;
51238;SDS011;38154;47.548;18.828;2022-11-15T05:18:28;15.70;;;7.97;;
51238;SDS011;38154;47.548;18.828;2022-11-15T05:20:54;15.32;;;7.47;;
51238;SDS011;38154;47.548;18.828;2022-11-15T05:23:20;15.60;;;8.20;;
51238;SDS011;38154;47.548;18.828;2022-11-15T05:25:46;11.82;;;8.25;;
51238;SDS011;38154;47.548;18.828;2022-11-15T05:28:12;14.90;;;8.20;;
51238;SDS011;38154;47.548;18.828;2022-11-15T05:30:38;11.27;;;6.87;;
51238;SDS011;38154;47.548;18.828;2022-11-15T05:33:04;14.55;;;7.00;;
51238;SDS011;38154;47.548;18.828;2022-11-15T05:35:34;16.15;;;7.75;;
51238;SDS011;38154;47.548;18.828;2022-11-15T05:38:05;13.23;;;7.55;;
51238;SDS011;38154;47.548;18.828;2022-11-15T05:40:31;14.20;;;6.78;;
51238;SDS011;38154;47.548;18.828;2022-11-15T05:42:58;13.00;;;7.00;;
51238;SDS011;38154;47.548;18.828;2022-11-15T05:45:26;21.30;;;11.12;;
51238;SDS011;38154;47.548;18.828;2022-11-15T05:47:52;17.43;;;10.87;;
51238;SDS011;38154;47.548;18.828;2022-11-15T05:50:21;17.48;;;8.40;;
51238;SDS011;38154;47.548;18.828;2022-11-15T05:52:47;12.60;;;8.03;;
51238;SDS011;38154;47.548;18.828;2022-11-15T05:55:13;13.47;;;8.40;;
51238;SDS011;38154;47.548;18.828;2022-11-15T05:57:40;28.50;;;8.80;;
51238;SDS011;38154;47.548;18.828;2022-11-15T06:00:07;13.80;;;7.85;;
51238;SDS011;38154;47.548;18.828;2022-11-15T06:02:34;17.73;;;7.82;;
51238;SDS011;38154;47.548;18.828;2022-11-15T06:05:00;15.60;;;7.55;;
51238;SDS011;38154;47.548;18.828;2022-11-15T06:07:26;21.10;;;7.25;;
51238;SDS011;38154;47.548;18.828;2022-11-15T06:09:52;12.18;;;6.28;;
51238;SDS011;38154;47.548;18.828;2022-11-15T06:12:18;15.43;;;7.45;;
51238;SDS011;38154;47.548;18.828;2022-11-15T06:14:44;7.90;;;5.03;;
51238;SDS011;38154;47.548;18.828;2022-11-15T06:17:09;12.52;;;5.97;;
51238;SDS011;38154;47.548;18.828;2022-11-15T06:19:35;9.45;;;6.12;;
51238;SDS011;38154;47.548;18.828;2022-11-15T06:22:01;23.25;;;9.00;;
51238;SDS011;38154;47.548;18.828;2022-11-15T06:24:27;10.98;;;5.78;;
51238;SDS011;38154;47.548;18.828;2022-11-15T06:26:53;15.57;;;8.40;;
51238;SDS011;38154;47.548;18.828;2022-11-15T06:29:19;17.87;;;9.90;;
51238;SDS011;38154;47.548;18.828;2022-11-15T06:31:45;12.57;;;8.63;;
51238;SDS011;38154;47.548;18.828;2022-11-15T06:34:10;19.48;;;9.50;;
51238;SDS011;38154;47.548;18.828;2022-11-15T06:36:36;28.65;;;11.35;;
51238;SDS011;38154;47.548;18.828;2022-11-15T06:39:03;19.77;;;10.23;;
51238;SDS011;38154;47.548;18.828;2022-11-15T06:41:29;25.17;;;9.93;;
51238;SDS011;38154;47.548;18.828;2022-11-15T06:43:56;18.95;;;9.90;;
51238;SDS011;38154;47.548;18.828;2022-11-15T06:48:50;16.00;;;7.40;;
51238;SDS011;38154;47.548;18.828;2022-11-15T06:51:16;20.65;;;9.93;;
51238;SDS011;38154;47.548;18.828;2022-11-15T06:53:42;18.02;;;9.25;;
51238;SDS011;38154;47.548;18.828;2022-11-15T06:56:08;19.77;;;10.25;;
51238;SDS011;38154;47.548;18.828;2022-11-15T06:58:34;21.05;;;10.18;;
51238;SDS011;38154;47.548;18.828;2022-11-15T07:01:01;20.90;;;10.30;;
51238;SDS011;38154;47.548;18.828;2022-11-15T07:03:31;20.35;;;10.13;;
51238;SDS011;38154;47.548;18.828;2022-11-15T07:05:59;26.12;;;10.25;;
51238;SDS011;38154;47.548;18.828;2022-11-15T07:08:26;22.23;;;11.00;;
51238;SDS011;38154;47.548;18.828;2022-11-15T07:10:54;15.30;;;9.75;;
51238;SDS011;38154;47.548;18.828;2022-11-15T07:13:23;17.23;;;8.50;;
51238;SDS011;38154;47.548;18.828;2022-11-15T07:15:50;17.62;;;9.68;;
51238;SDS011;38154;47.548;18.828;2022-11-15T07:18:16;17.00;;;9.57;;
51238;SDS011;38154;47.548;18.828;2022-11-15T07:20:41;19.83;;;9.95;;
51238;SDS011;38154;47.548;18.828;2022-11-15T07:23:07;17.67;;;8.70;;
51238;SDS011;38154;47.548;18.828;2022-11-15T07:25:33;20.05;;;9.82;;
51238;SDS011;38154;47.548;18.828;2022-11-15T07:28:00;18.92;;;8.48;;
51238;SDS011;38154;47.548;18.828;2022-11-15T07:30:26;20.50;;;8.48;;
51238;SDS011;38154;47.548;18.828;2022-11-15T07:32:56;18.27;;;9.38;;
51238;SDS011;38154;47.548;18.828;2022-11-15T07:35:23;19.90;;;10.43;;
51238;SDS011;38154;47.548;18.828;2022-11-15T07:40:19;26.45;;;12.23;;
51238;SDS011;38154;47.548;18.828;2022-11-15T07:42:45;34.00;;;11.93;;
51238;SDS011;38154;47.548;18.828;2022-11-15T07:45:24;31.00;;;11.75;;
51238;SDS011;38154;47.548;18.828;2022-11-15T07:47:53;17.73;;;8.30;;
51238;SDS011;38154;47.548;18.828;2022-11-15T07:50:21;20.50;;;9.18;;
51238;SDS011;38154;47.548;18.828;2022-11-15T07:52:53;15.98;;;8.70;;
51238;SDS011;38154;47.548;18.828;2022-11-15T07:55:19;19.12;;;9.25;;
51238;SDS011;38154;47.548;18.828;2022-11-15T07:57:45;20.05;;;10.57;;
51238;SDS011;38154;47.548;18.828;2022-11-15T08:00:11;18.73;;;9.70;;
51238;SDS011;38154;47.548;18.828;2022-11-15T08:02:37;16.87;;;10.35;;
51238;SDS011;38154;47.548;18.828;2022-11-15T08:05:03;22.80;;;9.50;;
51238;SDS011;38154;47.548;18.828;2022-11-15T08:07:30;17.42;;;9.38;;
51238;SDS011;38154;47.548;18.828;2022-11-15T08:09:56;20.12;;;10.25;;
51238;SDS011;38154;47.548;18.828;2022-11-15T08:12:23;17.05;;;9.07;;
51238;SDS011;38154;47.548;18.828;2022-11-15T08:14:49;22.90;;;9.90;;
51238;SDS011;38154;47.548;18.828;2022-11-15T08:17:15;25.17;;;13.83;;
51238;SDS011;38154;47.548;18.828;2022-11-15T08:19:40;17.98;;;10.38;;
51238;SDS011;38154;47.548;18.828;2022-11-15T08:22:07;22.23;;;10.20;;
51238;SDS011;38154;47.548;18.828;2022-11-15T08:24:33;18.23;;;9.80;;
51238;SDS011;38154;47.548;18.828;2022-11-15T08:26:59;20.00;;;9.73;;
51238;SDS011;38154;47.548;18.828;2022-11-15T08:29:25;21.43;;;10.40;;
51238;SDS011;38154;47.548;18.828;2022-11-15T08:31:54;24.48;;;9.85;;
51238;SDS011;38154;47.548;18.828;2022-11-15T08:34:21;18.33;;;9.63;;
51238;SDS011;38154;47.548;18.828;2022-11-15T08:36:47;24.00;;;10.05;;
51238;SDS011;38154;47.548;18.828;2022-11-15T08:39:13;20.27;;;9.38;;
51238;SDS011;38154;47.548;18.828;2022-11-15T08:41:39;26.45;;;11.32;;
51238;SDS011;38154;47.548;18.828;2022-11-15T08:44:05;20.37;;;10.35;;
51238;SDS011;38154;47.548;18.828;2022-11-15T08:46:31;19.08;;;9.27;;
51238;SDS011;38154;47.548;18.828;2022-11-15T08:48:56;20.75;;;10.25;;
51238;SDS011;38154;47.548;18.828;2022-11-15T08:51:22;17.43;;;9.80;;
51238;SDS011;38154;47.548;18.828;2022-11-15T08:53:48;20.27;;;10.33;;
51238;SDS011;38154;47.548;18.828;2022-11-15T08:56:14;21.65;;;10.68;;
51238;SDS011;38154;47.548;18.828;2022-11-15T08:58:40;15.82;;;8.27;;
51238;SDS011;38154;47.548;18.828;2022-11-15T09:01:14;13.82;;;8.15;;
51238;SDS011;38154;47.548;18.828;2022-11-15T09:03:42;21.37;;;9.85;;
51238;SDS011;38154;47.548;18.828;2022-11-15T09:06:07;18.00;;;9.05;;
51238;SDS011;38154;47.548;18.828;2022-11-15T09:08:34;20.60;;;9.48;;
51238;SDS011;38154;47.548;18.828;2022-11-15T09:11:04;24.07;;;10.77;;
51238;SDS011;38154;47.548;18.828;2022-11-15T09:13:31;21.23;;;9.43;;
51238;SDS011;38154;47.548;18.828;2022-11-15T09:15:59;20.85;;;9.82;;
51238;SDS011;38154;47.548;18.828;2022-11-15T09:18:25;19.35;;;8.80;;
51238;SDS011;38154;47.548;18.828;2022-11-15T09:20:56;19.87;;;9.02;;
51238;SDS011;38154;47.548;18.828;2022-11-15T09:23:23;20.50;;;11.52;;
51238;SDS011;38154;47.548;18.828;2022-11-15T09:25:50;20.77;;;11.35;;
51238;SDS011;38154;47.548;18.828;2022-11-15T09:28:16;20.77;;;9.55;;
51238;SDS011;38154;47.548;18.828;2022-11-15T09:30:42;15.52;;;8.80;;
51238;SDS011;38154;47.548;18.828;2022-11-15T09:33:08;19.42;;;10.00;;
51238;SDS011;38154;47.548;18.828;2022-11-15T09:35:35;16.15;;;8.30;;
51238;SDS011;38154;47.548;18.828;2022-11-15T09:38:02;21.70;;;11.00;;
51238;SDS011;38154;47.548;18.828;2022-11-15T09:40:29;15.38;;;8.27;;
51238;SDS011;38154;47.548;18.828;2022-11-15T09:46:17;20.70;;;10.43;;
51238;SDS011;38154;47.548;18.828;2022-11-15T09:48:51;16.58;;;8.85;;
51238;SDS011;38154;47.548;18.828;2022-11-15T09:51:23;18.08;;;9.93;;
51238;SDS011;38154;47.548;18.828;2022-11-15T09:54:11;16.33;;;9.18;;
51238;SDS011;38154;47.548;18.828;2022-11-15T09:56:42;18.65;;;9.07;;
51238;SDS011;38154;47.548;18.828;2022-11-15T10:02:36;19.65;;;9.45;;
51238;SDS011;38154;47.548;18.828;2022-11-15T10:05:23;14.07;;;8.77;;
51238;SDS011;38154;47.548;18.828;2022-11-15T10:13:23;16.30;;;9.30;;
51238;SDS011;38154;47.548;18.828;2022-11-15T10:15:53;18.17;;;8.82;;
51238;SDS011;38154;47.548;18.828;2022-11-15T10:18:44;15.93;;;9.00;;
51238;SDS011;38154;47.548;18.828;2022-11-15T10:21:22;19.10;;;9.88;;
51238;SDS011;38154;47.548;18.828;2022-11-15T10:23:51;19.25;;;10.68;;
51238;SDS011;38154;47.548;18.828;2022-11-15T10:26:18;20.08;;;9.25;;
51238;SDS011;38154;47.548;18.828;2022-11-15T10:28:44;19.08;;;10.35;;
51238;SDS011;38154;47.548;18.828;2022-11-15T10:31:23;21.00;;;9.77;;
51238;SDS011;38154;47.548;18.828;2022-11-15T10:33:53;17.87;;;10.13;;
51238;SDS011;38154;47.548;18.828;2022-11-15T10:36:59;22.92;;;11.77;;
51238;SDS011;38154;47.548;18.828;2022-11-15T10:39:29;20.75;;;9.63;;
51238;SDS011;38154;47.548;18.828;2022-11-15T10:41:55;18.70;;;10.57;;
51238;SDS011;38154;47.548;18.828;2022-11-15T10:44:25;20.33;;;10.20;;
51238;SDS011;38154;47.548;18.828;2022-11-15T10:49:21;25.67;;;10.87;;
51238;SDS011;38154;47.548;18.828;2022-11-15T10:54:58;28.48;;;13.05;;
51238;SDS011;38154;47.548;18.828;2022-11-15T10:57:37;27.05;;;11.60;;
51238;SDS011;38154;47.548;18.828;2022-11-15T11:06:16;27.62;;;10.70;;
51238;SDS011;38154;47.548;18.828;2022-11-15T11:11:45;20.40;;;10.32;;
51238;SDS011;38154;47.548;18.828;2022-11-15T11:14:20;24.98;;;10.05;;
51238;SDS011;38154;47.548;18.828;2022-11-15T11:16:50;23.95;;;11.38;;
51238;SDS011;38154;47.548;18.828;2022-11-15T11:33:50;27.50;;;11.82;;
51238;SDS011;38154;47.548;18.828;2022-11-15T11:36:31;28.02;;;13.15;;
51238;SDS011;38154;47.548;18.828;2022-11-15T11:39:28;22.67;;;10.70;;
51238;SDS011;38154;47.548;18.828;2022-11-15T11:42:01;28.08;;;12.93;;
51238;SDS011;38154;47.548;18.828;2022-11-15T11:44:33;31.98;;;12.05;;
51238;SDS011;38154;47.548;18.828;2022-11-15T11:47:23;28.10;;;12.75;;
51238;SDS011;38154;47.548;18.828;2022-11-15T11:50:19;23.45;;;12.55;;
51238;SDS011;38154;47.548;18.828;2022-11-15T11:53:09;29.92;;;13.32;;
51238;SDS011;38154;47.548;18.828;2022-11-15T11:55:45;26.25;;;10.68;;
51238;SDS011;38154;47.548;18.828;2022-11-15T11:58:32;25.42;;;10.05;;
51238;SDS011;38154;47.548;18.828;2022-11-15T12:03:51;27.08;;;12.32;;
51238;SDS011;38154;47.548;18.828;2022-11-15T12:09:17;27.35;;;12.77;;
51238;SDS011;38154;47.548;18.828;2022-11-15T12:12:21;27.77;;;13.05;;
51238;SDS011;38154;47.548;18.828;2022-11-15T12:15:00;33.28;;;14.13;;
51238;SDS011;38154;47.548;18.828;2022-11-15T12:17:35;30.98;;;13.02;;
51238;SDS011;38154;47.548;18.828;2022-11-15T12:20:03;42.75;;;14.70;;
51238;SDS011;38154;47.548;18.828;2022-11-15T12:22:43;32.65;;;13.93;;
51238;SDS011;38154;47.548;18.828;2022-11-15T12:28:17;36.85;;;16.52;;
51238;SDS011;38154;47.548;18.828;2022-11-15T12:30:52;45.00;;;18.42;;
51238;SDS011;38154;47.548;18.828;2022-11-15T12:33:35;29.85;;;14.52;;
51238;SDS011;38154;47.548;18.828;2022-11-15T12:38:59;37.60;;;16.10;;
51238;SDS011;38154;47.548;18.828;2022-11-15T12:41:27;36.70;;;15.63;;
51238;SDS011;38154;47.548;18.828;2022-11-15T12:43:53;53.28;;;23.05;;
51238;SDS011;38154;47.548;18.828;2022-11-15T12:46:21;42.78;;;17.58;;
51238;SDS011;38154;47.548;18.828;2022-11-15T12:48:50;35.70;;;16.60;;
51238;SDS011;38154;47.548;18.828;2022-11-15T12:51:21;35.17;;;17.42;;
51238;SDS011;38154;47.548;18.828;2022-11-15T13:02:49;28.73;;;14.70;;
51238;SDS011;38154;47.548;18.828;2022-11-15T13:17:44;34.85;;;14.50;;
51238;SDS011;38154;47.548;18.828;2022-11-15T13:22:46;31.60;;;14.57;;
51238;SDS011;38154;47.548;18.828;2022-11-15T13:33:23;30.70;;;15.45;;
51238;SDS011;38154;47.548;18.828;2022-11-15T13:35:54;33.53;;;15.85;;
51238;SDS011;38154;47.548;18.828;2022-11-15T13:38:27;36.45;;;16.02;;
51238;SDS011;38154;47.548;18.828;2022-11-15T13:40:55;32.92;;;15.05;;
51238;SDS011;38154;47.548;18.828;2022-11-15T13:48:46;27.52;;;12.30;;
51238;SDS011;38154;47.548;18.828;2022-11-15T13:53:54;25.75;;;11.80;;
51238;SDS011;38154;47.548;18.828;2022-11-15T13:56:23;27.20;;;12.82;;
51238;SDS011;38154;47.548;18.828;2022-11-15T13:58:52;30.73;;;13.27;;
51238;SDS011;38154;47.548;18.828;2022-11-15T14:01:20;28.40;;;12.82;;
51238;SDS011;38154;47.548;18.828;2022-11-15T14:03:57;33.42;;;14.60;;
51238;SDS011;38154;47.548;18.828;2022-11-15T14:06:25;35.50;;;13.35;;
51238;SDS011;38154;47.548;18.828;2022-11-15T14:11:35;28.45;;;12.52;;
51238;SDS011;38154;47.548;18.828;2022-11-15T14:16:38;34.47;;;15.15;;
51238;SDS011;38154;47.548;18.828;2022-11-15T14:19:08;33.40;;;13.50;;
51238;SDS011;38154;47.548;18.828;2022-11-15T14:21:36;35.53;;;13.55;;
51238;SDS011;38154;47.548;18.828;2022-11-15T14:24:19;27.60;;;12.68;;
51238;SDS011;38154;47.548;18.828;2022-11-15T14:26:46;28.23;;;12.63;;
51238;SDS011;38154;47.548;18.828;2022-11-15T14:29:25;31.00;;;13.17;;
51238;SDS011;38154;47.548;18.828;2022-11-15T14:31:53;29.27;;;13.05;;
51238;SDS011;38154;47.548;18.828;2022-11-15T14:34:31;33.72;;;13.00;;
51238;SDS011;38154;47.548;18.828;2022-11-15T14:36:57;28.67;;;12.18;;
51238;SDS011;38154;47.548;18.828;2022-11-15T14:39:23;30.92;;;12.13;;
51238;SDS011;38154;47.548;18.828;2022-11-15T14:44:16;29.70;;;11.88;;
51238;SDS011;38154;47.548;18.828;2022-11-15T14:46:43;26.02;;;12.27;;
51238;SDS011;38154;47.548;18.828;2022-11-15T14:49:09;27.37;;;11.52;;
51238;SDS011;38154;47.548;18.828;2022-11-15T14:51:35;27.70;;;11.80;;
51238;SDS011;38154;47.548;18.828;2022-11-15T14:54:01;30.83;;;12.70;;
51238;SDS011;38154;47.548;18.828;2022-11-15T14:56:27;34.15;;;13.10;;
51238;SDS011;38154;47.548;18.828;2022-11-15T14:58:53;35.85;;;14.35;;
51238;SDS011;38154;47.548;18.828;2022-11-15T15:01:22;30.92;;;13.60;;
51238;SDS011;38154;47.548;18.828;2022-11-15T15:03:50;31.85;;;12.30;;
51238;SDS011;38154;47.548;18.828;2022-11-15T15:06:17;33.80;;;14.32;;
51238;SDS011;38154;47.548;18.828;2022-11-15T15:08:44;34.95;;;13.35;;
51238;SDS011;38154;47.548;18.828;2022-11-15T15:11:16;33.83;;;13.68;;
51238;SDS011;38154;47.548;18.828;2022-11-15T15:13:46;37.30;;;15.88;;
51238;SDS011;38154;47.548;18.828;2022-11-15T15:16:12;35.67;;;14.45;;
51238;SDS011;38154;47.548;18.828;2022-11-15T15:18:38;34.20;;;13.82;;
51238;SDS011;38154;47.548;18.828;2022-11-15T15:21:04;33.33;;;13.62;;
51238;SDS011;38154;47.548;18.828;2022-11-15T15:23:44;28.62;;;13.13;;
51238;SDS011;38154;47.548;18.828;2022-11-15T15:26:10;36.85;;;16.25;;
51238;SDS011;38154;47.548;18.828;2022-11-15T15:28:36;26.60;;;13.13;;
51238;SDS011;38154;47.548;18.828;2022-11-15T15:31:03;38.05;;;14.63;;
51238;SDS011;38154;47.548;18.828;2022-11-15T15:33:29;30.33;;;13.90;;
51238;SDS011;38154;47.548;18.828;2022-11-15T15:35:55;31.70;;;12.40;;
51238;SDS011;38154;47.548;18.828;2022-11-15T15:38:21;30.58;;;13.93;;
51238;SDS011;38154;47.548;18.828;2022-11-15T15:40:48;45.72;;;15.20;;
51238;SDS011;38154;47.548;18.828;2022-11-15T15:43:14;31.43;;;14.73;;
51238;SDS011;38154;47.548;18.828;2022-11-15T15:45:40;32.63;;;14.02;;
51238;SDS011;38154;47.548;18.828;2022-11-15T15:50:39;38.60;;;15.50;;
51238;SDS011;38154;47.548;18.828;2022-11-15T15:53:08;40.22;;;14.57;;
51238;SDS011;38154;47.548;18.828;2022-11-15T15:55:36;44.95;;;16.10;;
51238;SDS011;38154;47.548;18.828;2022-11-15T15:58:02;39.50;;;15.85;;
51238;SDS011;38154;47.548;18.828;2022-11-15T16:00:29;45.45;;;16.77;;
51238;SDS011;38154;47.548;18.828;2022-11-15T16:02:55;33.15;;;15.02;;
51238;SDS011;38154;47.548;18.828;2022-11-15T16:05:21;32.60;;;16.15;;
51238;SDS011;38154;47.548;18.828;2022-11-15T16:10:26;32.00;;;14.43;;
51238;SDS011;38154;47.548;18.828;2022-11-15T16:12:53;33.25;;;13.05;;
51238;SDS011;38154;47.548;18.828;2022-11-15T16:15:20;33.50;;;15.68;;
51238;SDS011;38154;47.548;18.828;2022-11-15T16:17:48;33.92;;;13.27;;
51238;SDS011;38154;47.548;18.828;2022-11-15T16:20:23;40.63;;;14.10;;
51238;SDS011;38154;47.548;18.828;2022-11-15T16:23:01;35.10;;;13.52;;
51238;SDS011;38154;47.548;18.828;2022-11-15T16:25:28;31.17;;;13.62;;
51238;SDS011;38154;47.548;18.828;2022-11-15T16:27:54;33.78;;;14.02;;
51238;SDS011;38154;47.548;18.828;2022-11-15T16:30:21;34.47;;;14.35;;
51238;SDS011;38154;47.548;18.828;2022-11-15T16:32:48;29.25;;;13.65;;
51238;SDS011;38154;47.548;18.828;2022-11-15T16:35:14;36.95;;;15.02;;
51238;SDS011;38154;47.548;18.828;2022-11-15T16:37:41;38.53;;;14.65;;
51238;SDS011;38154;47.548;18.828;2022-11-15T16:40:24;30.95;;;12.98;;
51238;SDS011;38154;47.548;18.828;2022-11-15T16:42:55;35.58;;;12.82;;
51238;SDS011;38154;47.548;18.828;2022-11-15T16:45:27;25.83;;;13.85;;
51238;SDS011;38154;47.548;18.828;2022-11-15T16:47:56;27.23;;;12.27;;